Terminal Aerodrome Forecast
Issued by NWS Memphis, TN

Home | Current Version | Previous Version | Text Only | Print | Product List | Glossary On
Versions: 1 2 3 4 5 6 7 8 9 10 11 12 13 14 15 16 17 18 19
000
FTUS44 KMEG 212330
TAFMKL
TAF
KMKL 212330Z 2200/2224 18010KT P6SM BKN250
     FM220700 16007KT 6SM -TSRA SCT010 OVC030CB
      TEMPO 2208/2210 2SM TSRA BKN005 OVC015CB
     FM221000 20009KT 4SM -TSRA BR OVC006CB
     FM221500 23010G17KT 5SM -TSRA BR BKN015CB OVC025=

USA.gov is the U.S. government's official web portal to all federal, state and local government web resources and services.